sensor_id;sensor_type;location;lat;lon;timestamp;P1;durP1;ratioP1;P2;durP2;ratioP2
28266;SDS011;15525;45.568;5.448;2023-06-14T00:00:10;5.65;;;2.80;;
28266;SDS011;15525;45.568;5.448;2023-06-14T00:02:38;6.07;;;3.28;;
28266;SDS011;15525;45.568;5.448;2023-06-14T00:05:04;4.63;;;2.90;;
28266;SDS011;15525;45.568;5.448;2023-06-14T00:07:41;4.63;;;2.92;;
28266;SDS011;15525;45.568;5.448;2023-06-14T00:10:13;4.15;;;3.10;;
28266;SDS011;15525;45.568;5.448;2023-06-14T00:12:39;4.05;;;2.90;;
28266;SDS011;15525;45.568;5.448;2023-06-14T00:15:05;6.13;;;3.10;;
28266;SDS011;15525;45.568;5.448;2023-06-14T00:17:31;4.68;;;2.80;;
28266;SDS011;15525;45.568;5.448;2023-06-14T00:19:59;5.90;;;3.00;;
28266;SDS011;15525;45.568;5.448;2023-06-14T00:22:25;5.03;;;2.92;;
28266;SDS011;15525;45.568;5.448;2023-06-14T00:24:51;4.47;;;2.90;;
28266;SDS011;15525;45.568;5.448;2023-06-14T00:27:17;3.10;;;2.80;;
28266;SDS011;15525;45.568;5.448;2023-06-14T00:29:42;4.63;;;3.33;;
28266;SDS011;15525;45.568;5.448;2023-06-14T00:32:08;3.95;;;2.70;;
28266;SDS011;15525;45.568;5.448;2023-06-14T00:34:33;5.70;;;2.75;;
28266;SDS011;15525;45.568;5.448;2023-06-14T00:36:59;4.20;;;3.33;;
28266;SDS011;15525;45.568;5.448;2023-06-14T00:39:25;5.90;;;3.00;;
28266;SDS011;15525;45.568;5.448;2023-06-14T00:41:50;5.35;;;2.72;;
28266;SDS011;15525;45.568;5.448;2023-06-14T00:44:16;4.60;;;2.92;;
28266;SDS011;15525;45.568;5.448;2023-06-14T00:46:42;4.22;;;2.97;;
28266;SDS011;15525;45.568;5.448;2023-06-14T00:49:09;3.42;;;2.80;;
28266;SDS011;15525;45.568;5.448;2023-06-14T00:51:35;3.42;;;2.78;;
28266;SDS011;15525;45.568;5.448;2023-06-14T00:54:02;4.30;;;2.97;;
28266;SDS011;15525;45.568;5.448;2023-06-14T00:56:28;4.18;;;2.70;;
28266;SDS011;15525;45.568;5.448;2023-06-14T00:58:54;5.72;;;3.08;;
28266;SDS011;15525;45.568;5.448;2023-06-14T01:01:20;6.43;;;3.30;;
28266;SDS011;15525;45.568;5.448;2023-06-14T01:03:46;6.00;;;3.42;;
28266;SDS011;15525;45.568;5.448;2023-06-14T01:06:19;8.18;;;3.08;;
28266;SDS011;15525;45.568;5.448;2023-06-14T01:09:08;5.35;;;3.22;;
28266;SDS011;15525;45.568;5.448;2023-06-14T01:14:44;4.25;;;2.65;;
28266;SDS011;15525;45.568;5.448;2023-06-14T01:17:12;8.63;;;3.28;;
28266;SDS011;15525;45.568;5.448;2023-06-14T01:19:45;4.60;;;3.30;;
28266;SDS011;15525;45.568;5.448;2023-06-14T01:22:11;6.45;;;3.17;;
28266;SDS011;15525;45.568;5.448;2023-06-14T01:24:36;4.53;;;3.15;;
28266;SDS011;15525;45.568;5.448;2023-06-14T01:27:04;6.97;;;3.22;;
28266;SDS011;15525;45.568;5.448;2023-06-14T01:29:32;3.83;;;2.97;;
28266;SDS011;15525;45.568;5.448;2023-06-14T01:32:01;7.07;;;3.42;;
28266;SDS011;15525;45.568;5.448;2023-06-14T01:34:27;5.55;;;3.30;;
28266;SDS011;15525;45.568;5.448;2023-06-14T01:36:52;5.05;;;3.47;;
28266;SDS011;15525;45.568;5.448;2023-06-14T01:39:22;4.88;;;3.22;;
28266;SDS011;15525;45.568;5.448;2023-06-14T01:41:48;6.45;;;3.58;;
28266;SDS011;15525;45.568;5.448;2023-06-14T01:44:15;4.13;;;3.25;;
28266;SDS011;15525;45.568;5.448;2023-06-14T01:46:42;3.67;;;3.03;;
28266;SDS011;15525;45.568;5.448;2023-06-14T01:49:08;4.18;;;3.35;;
28266;SDS011;15525;45.568;5.448;2023-06-14T01:51:34;5.30;;;3.42;;
28266;SDS011;15525;45.568;5.448;2023-06-14T01:54:00;5.00;;;3.08;;
28266;SDS011;15525;45.568;5.448;2023-06-14T01:56:26;7.68;;;3.70;;
28266;SDS011;15525;45.568;5.448;2023-06-14T01:58:52;5.15;;;3.55;;
28266;SDS011;15525;45.568;5.448;2023-06-14T02:01:18;6.65;;;3.22;;
28266;SDS011;15525;45.568;5.448;2023-06-14T02:03:46;6.60;;;3.50;;
28266;SDS011;15525;45.568;5.448;2023-06-14T02:06:11;5.05;;;3.65;;
28266;SDS011;15525;45.568;5.448;2023-06-14T02:08:37;6.65;;;3.38;;
28266;SDS011;15525;45.568;5.448;2023-06-14T02:11:02;8.45;;;3.30;;
28266;SDS011;15525;45.568;5.448;2023-06-14T02:13:28;6.22;;;3.50;;
28266;SDS011;15525;45.568;5.448;2023-06-14T02:15:53;7.47;;;3.53;;
28266;SDS011;15525;45.568;5.448;2023-06-14T02:18:19;6.40;;;3.45;;
28266;SDS011;15525;45.568;5.448;2023-06-14T02:20:46;4.38;;;3.30;;
28266;SDS011;15525;45.568;5.448;2023-06-14T02:23:12;6.35;;;3.70;;
28266;SDS011;15525;45.568;5.448;2023-06-14T02:25:37;7.35;;;3.70;;
28266;SDS011;15525;45.568;5.448;2023-06-14T02:28:04;9.93;;;3.88;;
28266;SDS011;15525;45.568;5.448;2023-06-14T02:30:30;6.10;;;3.42;;
28266;SDS011;15525;45.568;5.448;2023-06-14T02:32:56;5.90;;;3.70;;
28266;SDS011;15525;45.568;5.448;2023-06-14T02:35:21;6.07;;;3.10;;
28266;SDS011;15525;45.568;5.448;2023-06-14T02:37:49;5.30;;;3.33;;
28266;SDS011;15525;45.568;5.448;2023-06-14T02:40:16;4.57;;;3.28;;
28266;SDS011;15525;45.568;5.448;2023-06-14T02:42:41;6.07;;;3.55;;
28266;SDS011;15525;45.568;5.448;2023-06-14T02:45:07;6.43;;;3.78;;
28266;SDS011;15525;45.568;5.448;2023-06-14T02:47:33;8.63;;;3.63;;
28266;SDS011;15525;45.568;5.448;2023-06-14T02:49:58;8.45;;;3.60;;
28266;SDS011;15525;45.568;5.448;2023-06-14T02:52:24;6.47;;;3.50;;
28266;SDS011;15525;45.568;5.448;2023-06-14T02:54:50;6.10;;;3.60;;
28266;SDS011;15525;45.568;5.448;2023-06-14T02:57:15;4.50;;;3.90;;
28266;SDS011;15525;45.568;5.448;2023-06-14T02:59:41;7.90;;;3.80;;
28266;SDS011;15525;45.568;5.448;2023-06-14T03:02:06;6.30;;;4.07;;
28266;SDS011;15525;45.568;5.448;2023-06-14T03:04:32;6.82;;;3.92;;
28266;SDS011;15525;45.568;5.448;2023-06-14T03:07:02;5.75;;;3.90;;
28266;SDS011;15525;45.568;5.448;2023-06-14T03:09:34;4.93;;;3.88;;
28266;SDS011;15525;45.568;5.448;2023-06-14T03:12:02;6.45;;;3.80;;
28266;SDS011;15525;45.568;5.448;2023-06-14T03:14:28;8.40;;;3.78;;
28266;SDS011;15525;45.568;5.448;2023-06-14T03:16:55;6.68;;;3.47;;
28266;SDS011;15525;45.568;5.448;2023-06-14T03:19:22;7.35;;;3.53;;
28266;SDS011;15525;45.568;5.448;2023-06-14T03:21:48;7.05;;;3.55;;
28266;SDS011;15525;45.568;5.448;2023-06-14T03:24:14;7.25;;;3.30;;
28266;SDS011;15525;45.568;5.448;2023-06-14T03:26:41;7.47;;;3.85;;
28266;SDS011;15525;45.568;5.448;2023-06-14T03:29:07;9.27;;;5.10;;
28266;SDS011;15525;45.568;5.448;2023-06-14T03:31:33;7.30;;;3.60;;
28266;SDS011;15525;45.568;5.448;2023-06-14T03:34:00;7.22;;;4.20;;
28266;SDS011;15525;45.568;5.448;2023-06-14T03:36:26;8.13;;;4.00;;
28266;SDS011;15525;45.568;5.448;2023-06-14T03:38:51;7.57;;;3.50;;
28266;SDS011;15525;45.568;5.448;2023-06-14T03:41:16;7.65;;;4.13;;
28266;SDS011;15525;45.568;5.448;2023-06-14T03:43:42;9.13;;;3.70;;
28266;SDS011;15525;45.568;5.448;2023-06-14T03:46:07;7.00;;;3.78;;
28266;SDS011;15525;45.568;5.448;2023-06-14T03:48:32;6.43;;;4.72;;
28266;SDS011;15525;45.568;5.448;2023-06-14T03:50:58;7.38;;;4.55;;
28266;SDS011;15525;45.568;5.448;2023-06-14T03:53:23;12.13;;;5.00;;
28266;SDS011;15525;45.568;5.448;2023-06-14T03:55:49;7.93;;;4.63;;
28266;SDS011;15525;45.568;5.448;2023-06-14T03:58:17;6.93;;;4.57;;
28266;SDS011;15525;45.568;5.448;2023-06-14T04:00:42;9.40;;;4.80;;
28266;SDS011;15525;45.568;5.448;2023-06-14T04:03:09;8.77;;;5.15;;
28266;SDS011;15525;45.568;5.448;2023-06-14T04:05:35;9.15;;;5.15;;
28266;SDS011;15525;45.568;5.448;2023-06-14T04:08:01;8.57;;;4.85;;
28266;SDS011;15525;45.568;5.448;2023-06-14T04:10:26;7.07;;;4.70;;
28266;SDS011;15525;45.568;5.448;2023-06-14T04:12:51;9.98;;;4.82;;
28266;SDS011;15525;45.568;5.448;2023-06-14T04:15:17;6.85;;;4.82;;
28266;SDS011;15525;45.568;5.448;2023-06-14T04:17:43;9.80;;;4.32;;
28266;SDS011;15525;45.568;5.448;2023-06-14T04:20:08;6.43;;;4.65;;
28266;SDS011;15525;45.568;5.448;2023-06-14T04:22:34;9.43;;;4.65;;
28266;SDS011;15525;45.568;5.448;2023-06-14T04:25:01;5.80;;;4.45;;
28266;SDS011;15525;45.568;5.448;2023-06-14T04:27:27;10.20;;;4.68;;
28266;SDS011;15525;45.568;5.448;2023-06-14T04:29:54;5.95;;;4.38;;
28266;SDS011;15525;45.568;5.448;2023-06-14T04:32:24;7.53;;;4.43;;
28266;SDS011;15525;45.568;5.448;2023-06-14T04:34:52;9.27;;;4.68;;
28266;SDS011;15525;45.568;5.448;2023-06-14T04:37:21;9.02;;;4.35;;
28266;SDS011;15525;45.568;5.448;2023-06-14T04:39:47;7.70;;;4.35;;
28266;SDS011;15525;45.568;5.448;2023-06-14T04:42:15;8.35;;;4.55;;
28266;SDS011;15525;45.568;5.448;2023-06-14T04:44:41;5.65;;;4.45;;
28266;SDS011;15525;45.568;5.448;2023-06-14T04:47:10;8.40;;;4.55;;
28266;SDS011;15525;45.568;5.448;2023-06-14T04:49:37;6.85;;;4.55;;
28266;SDS011;15525;45.568;5.448;2023-06-14T04:52:03;8.82;;;4.70;;
28266;SDS011;15525;45.568;5.448;2023-06-14T04:54:29;8.10;;;4.97;;
28266;SDS011;15525;45.568;5.448;2023-06-14T04:56:56;8.57;;;5.30;;
28266;SDS011;15525;45.568;5.448;2023-06-14T04:59:22;8.10;;;4.50;;
28266;SDS011;15525;45.568;5.448;2023-06-14T05:01:48;7.57;;;4.53;;
28266;SDS011;15525;45.568;5.448;2023-06-14T05:04:18;5.30;;;4.05;;
28266;SDS011;15525;45.568;5.448;2023-06-14T05:06:45;6.70;;;4.47;;
28266;SDS011;15525;45.568;5.448;2023-06-14T05:09:11;5.38;;;4.53;;
28266;SDS011;15525;45.568;5.448;2023-06-14T05:11:37;5.50;;;4.18;;
28266;SDS011;15525;45.568;5.448;2023-06-14T05:14:02;7.47;;;4.28;;
28266;SDS011;15525;45.568;5.448;2023-06-14T05:16:27;7.22;;;4.40;;
28266;SDS011;15525;45.568;5.448;2023-06-14T05:18:54;7.35;;;4.40;;
28266;SDS011;15525;45.568;5.448;2023-06-14T05:21:20;7.63;;;4.50;;
28266;SDS011;15525;45.568;5.448;2023-06-14T05:23:45;6.22;;;4.28;;
28266;SDS011;15525;45.568;5.448;2023-06-14T05:26:11;7.75;;;4.20;;
28266;SDS011;15525;45.568;5.448;2023-06-14T05:28:36;8.30;;;4.40;;
28266;SDS011;15525;45.568;5.448;2023-06-14T05:31:02;5.28;;;3.97;;
28266;SDS011;15525;45.568;5.448;2023-06-14T05:33:27;8.18;;;4.25;;
28266;SDS011;15525;45.568;5.448;2023-06-14T05:35:53;8.48;;;4.45;;
28266;SDS011;15525;45.568;5.448;2023-06-14T05:38:18;7.53;;;3.95;;
28266;SDS011;15525;45.568;5.448;2023-06-14T05:40:44;9.10;;;4.03;;
28266;SDS011;15525;45.568;5.448;2023-06-14T05:43:10;6.55;;;3.90;;
28266;SDS011;15525;45.568;5.448;2023-06-14T05:45:35;6.25;;;3.63;;
28266;SDS011;15525;45.568;5.448;2023-06-14T05:48:01;5.82;;;3.85;;
28266;SDS011;15525;45.568;5.448;2023-06-14T05:50:26;6.22;;;3.70;;
28266;SDS011;15525;45.568;5.448;2023-06-14T05:52:52;5.03;;;3.72;;
28266;SDS011;15525;45.568;5.448;2023-06-14T05:55:18;9.95;;;4.18;;
28266;SDS011;15525;45.568;5.448;2023-06-14T05:57:44;4.80;;;3.78;;
28266;SDS011;15525;45.568;5.448;2023-06-14T06:00:10;9.82;;;4.13;;
28266;SDS011;15525;45.568;5.448;2023-06-14T06:02:36;5.32;;;3.85;;
28266;SDS011;15525;45.568;5.448;2023-06-14T06:05:02;8.48;;;3.80;;
28266;SDS011;15525;45.568;5.448;2023-06-14T06:07:28;6.18;;;3.88;;
28266;SDS011;15525;45.568;5.448;2023-06-14T06:09:53;5.38;;;3.70;;
28266;SDS011;15525;45.568;5.448;2023-06-14T06:12:18;10.15;;;4.20;;
28266;SDS011;15525;45.568;5.448;2023-06-14T06:14:44;8.70;;;3.90;;
28266;SDS011;15525;45.568;5.448;2023-06-14T06:17:09;5.40;;;4.50;;
28266;SDS011;15525;45.568;5.448;2023-06-14T06:19:35;5.38;;;3.80;;
28266;SDS011;15525;45.568;5.448;2023-06-14T06:22:01;8.52;;;4.43;;
28266;SDS011;15525;45.568;5.448;2023-06-14T06:24:29;7.82;;;4.20;;
28266;SDS011;15525;45.568;5.448;2023-06-14T06:26:55;4.90;;;3.67;;
28266;SDS011;15525;45.568;5.448;2023-06-14T06:29:20;5.72;;;4.30;;
28266;SDS011;15525;45.568;5.448;2023-06-14T06:31:46;6.25;;;4.70;;
28266;SDS011;15525;45.568;5.448;2023-06-14T06:34:11;7.70;;;4.53;;
28266;SDS011;15525;45.568;5.448;2023-06-14T06:36:36;9.00;;;4.93;;
28266;SDS011;15525;45.568;5.448;2023-06-14T06:39:02;8.13;;;4.82;;
28266;SDS011;15525;45.568;5.448;2023-06-14T06:41:34;5.88;;;4.50;;
28266;SDS011;15525;45.568;5.448;2023-06-14T06:44:01;7.78;;;4.70;;
28266;SDS011;15525;45.568;5.448;2023-06-14T06:46:26;6.60;;;4.75;;
28266;SDS011;15525;45.568;5.448;2023-06-14T06:48:52;7.70;;;4.90;;
28266;SDS011;15525;45.568;5.448;2023-06-14T06:51:17;6.85;;;4.85;;
28266;SDS011;15525;45.568;5.448;2023-06-14T06:53:42;10.50;;;5.13;;
28266;SDS011;15525;45.568;5.448;2023-06-14T06:56:09;7.18;;;4.97;;
28266;SDS011;15525;45.568;5.448;2023-06-14T06:58:34;9.07;;;5.45;;
28266;SDS011;15525;45.568;5.448;2023-06-14T07:00:59;9.73;;;5.47;;
28266;SDS011;15525;45.568;5.448;2023-06-14T07:03:25;6.68;;;5.05;;
28266;SDS011;15525;45.568;5.448;2023-06-14T07:05:51;7.95;;;4.93;;
28266;SDS011;15525;45.568;5.448;2023-06-14T07:08:17;9.27;;;5.10;;
28266;SDS011;15525;45.568;5.448;2023-06-14T07:10:42;7.78;;;5.40;;
28266;SDS011;15525;45.568;5.448;2023-06-14T07:13:07;5.85;;;5.00;;
28266;SDS011;15525;45.568;5.448;2023-06-14T07:15:33;5.80;;;5.00;;
28266;SDS011;15525;45.568;5.448;2023-06-14T07:17:59;6.22;;;4.90;;
28266;SDS011;15525;45.568;5.448;2023-06-14T07:20:24;7.57;;;4.80;;
28266;SDS011;15525;45.568;5.448;2023-06-14T07:22:50;6.63;;;5.05;;
28266;SDS011;15525;45.568;5.448;2023-06-14T07:25:16;8.25;;;5.15;;
28266;SDS011;15525;45.568;5.448;2023-06-14T07:27:45;6.25;;;5.35;;
28266;SDS011;15525;45.568;5.448;2023-06-14T07:30:11;7.00;;;5.07;;
28266;SDS011;15525;45.568;5.448;2023-06-14T07:32:36;6.60;;;4.93;;
28266;SDS011;15525;45.568;5.448;2023-06-14T07:35:02;7.00;;;5.20;;
28266;SDS011;15525;45.568;5.448;2023-06-14T07:37:28;9.20;;;5.18;;
28266;SDS011;15525;45.568;5.448;2023-06-14T07:39:53;6.32;;;5.28;;
28266;SDS011;15525;45.568;5.448;2023-06-14T07:42:19;9.48;;;5.43;;
28266;SDS011;15525;45.568;5.448;2023-06-14T07:44:44;6.70;;;5.03;;
28266;SDS011;15525;45.568;5.448;2023-06-14T07:47:10;6.32;;;5.50;;
28266;SDS011;15525;45.568;5.448;2023-06-14T07:49:35;9.05;;;5.28;;
28266;SDS011;15525;45.568;5.448;2023-06-14T07:52:01;5.80;;;5.18;;
28266;SDS011;15525;45.568;5.448;2023-06-14T07:54:26;8.52;;;5.60;;
28266;SDS011;15525;45.568;5.448;2023-06-14T07:56:52;7.72;;;5.60;;
28266;SDS011;15525;45.568;5.448;2023-06-14T07:59:18;7.22;;;5.35;;
28266;SDS011;15525;45.568;5.448;2023-06-14T08:01:43;8.18;;;5.72;;
28266;SDS011;15525;45.568;5.448;2023-06-14T08:04:16;8.23;;;5.53;;
28266;SDS011;15525;45.568;5.448;2023-06-14T08:06:41;9.52;;;5.78;;
28266;SDS011;15525;45.568;5.448;2023-06-14T08:09:09;9.45;;;5.82;;
28266;SDS011;15525;45.568;5.448;2023-06-14T08:11:36;7.40;;;6.47;;
28266;SDS011;15525;45.568;5.448;2023-06-14T08:14:01;8.23;;;5.82;;
28266;SDS011;15525;45.568;5.448;2023-06-14T08:16:26;6.90;;;6.18;;
28266;SDS011;15525;45.568;5.448;2023-06-14T08:18:52;8.45;;;6.90;;
28266;SDS011;15525;45.568;5.448;2023-06-14T08:21:17;9.82;;;6.18;;
28266;SDS011;15525;45.568;5.448;2023-06-14T08:23:43;7.65;;;6.53;;
28266;SDS011;15525;45.568;5.448;2023-06-14T08:26:08;8.07;;;6.82;;
28266;SDS011;15525;45.568;5.448;2023-06-14T08:28:35;9.10;;;6.28;;
28266;SDS011;15525;45.568;5.448;2023-06-14T08:31:00;7.50;;;6.18;;
28266;SDS011;15525;45.568;5.448;2023-06-14T08:33:26;8.85;;;6.47;;
28266;SDS011;15525;45.568;5.448;2023-06-14T08:35:52;8.82;;;6.57;;
28266;SDS011;15525;45.568;5.448;2023-06-14T08:38:17;7.53;;;6.40;;
28266;SDS011;15525;45.568;5.448;2023-06-14T08:40:43;10.55;;;6.43;;
28266;SDS011;15525;45.568;5.448;2023-06-14T08:43:12;6.90;;;6.20;;
28266;SDS011;15525;45.568;5.448;2023-06-14T08:45:38;10.70;;;6.47;;
28266;SDS011;15525;45.568;5.448;2023-06-14T08:48:05;12.48;;;7.10;;
28266;SDS011;15525;45.568;5.448;2023-06-14T08:50:32;9.48;;;6.93;;
28266;SDS011;15525;45.568;5.448;2023-06-14T08:52:59;9.77;;;6.60;;
28266;SDS011;15525;45.568;5.448;2023-06-14T08:55:28;8.77;;;6.90;;
28266;SDS011;15525;45.568;5.448;2023-06-14T08:57:57;10.23;;;6.75;;
28266;SDS011;15525;45.568;5.448;2023-06-14T09:00:24;7.13;;;6.18;;
28266;SDS011;15525;45.568;5.448;2023-06-14T09:02:51;7.80;;;6.72;;
28266;SDS011;15525;45.568;5.448;2023-06-14T09:05:21;9.20;;;6.03;;
28266;SDS011;15525;45.568;5.448;2023-06-14T09:07:50;9.98;;;7.22;;
28266;SDS011;15525;45.568;5.448;2023-06-14T09:10:16;9.25;;;6.95;;
28266;SDS011;15525;45.568;5.448;2023-06-14T09:12:41;7.13;;;6.40;;
28266;SDS011;15525;45.568;5.448;2023-06-14T09:15:07;10.95;;;7.00;;
28266;SDS011;15525;45.568;5.448;2023-06-14T09:17:40;7.78;;;6.47;;
28266;SDS011;15525;45.568;5.448;2023-06-14T09:20:06;11.15;;;6.80;;
28266;SDS011;15525;45.568;5.448;2023-06-14T09:22:38;8.13;;;6.75;;
28266;SDS011;15525;45.568;5.448;2023-06-14T09:25:04;8.02;;;7.20;;
28266;SDS011;15525;45.568;5.448;2023-06-14T09:27:31;8.43;;;7.50;;
28266;SDS011;15525;45.568;5.448;2023-06-14T09:29:57;10.57;;;7.03;;
28266;SDS011;15525;45.568;5.448;2023-06-14T09:32:23;10.30;;;7.00;;
28266;SDS011;15525;45.568;5.448;2023-06-14T09:34:49;10.48;;;6.80;;
28266;SDS011;15525;45.568;5.448;2023-06-14T09:37:30;8.95;;;7.05;;
28266;SDS011;15525;45.568;5.448;2023-06-14T09:39:57;8.35;;;7.47;;
28266;SDS011;15525;45.568;5.448;2023-06-14T09:42:23;9.93;;;7.80;;
28266;SDS011;15525;45.568;5.448;2023-06-14T09:44:51;8.43;;;6.90;;
28266;SDS011;15525;45.568;5.448;2023-06-14T09:47:17;11.15;;;7.38;;
28266;SDS011;15525;45.568;5.448;2023-06-14T09:49:43;9.93;;;7.50;;
28266;SDS011;15525;45.568;5.448;2023-06-14T09:52:19;9.10;;;7.40;;
28266;SDS011;15525;45.568;5.448;2023-06-14T09:54:46;8.60;;;6.95;;
28266;SDS011;15525;45.568;5.448;2023-06-14T09:57:13;8.98;;;7.25;;
28266;SDS011;15525;45.568;5.448;2023-06-14T09:59:41;9.43;;;7.00;;
28266;SDS011;15525;45.568;5.448;2023-06-14T10:02:18;10.57;;;7.10;;
28266;SDS011;15525;45.568;5.448;2023-06-14T10:05:12;10.97;;;6.93;;
28266;SDS011;15525;45.568;5.448;2023-06-14T10:07:42;7.15;;;6.45;;
28266;SDS011;15525;45.568;5.448;2023-06-14T10:10:17;10.23;;;6.78;;
28266;SDS011;15525;45.568;5.448;2023-06-14T10:12:42;7.57;;;6.45;;
28266;SDS011;15525;45.568;5.448;2023-06-14T10:15:09;8.77;;;6.70;;
28266;SDS011;15525;45.568;5.448;2023-06-14T10:17:46;7.60;;;5.97;;
28266;SDS011;15525;45.568;5.448;2023-06-14T10:22:58;9.32;;;6.55;;
28266;SDS011;15525;45.568;5.448;2023-06-14T10:25:29;7.78;;;6.25;;
28266;SDS011;15525;45.568;5.448;2023-06-14T10:28:14;7.45;;;6.47;;
28266;SDS011;15525;45.568;5.448;2023-06-14T10:33:32;7.20;;;6.50;;
28266;SDS011;15525;45.568;5.448;2023-06-14T10:36:08;7.65;;;6.10;;
28266;SDS011;15525;45.568;5.448;2023-06-14T10:38:34;8.63;;;6.00;;
28266;SDS011;15525;45.568;5.448;2023-06-14T10:41:01;5.93;;;5.32;;
28266;SDS011;15525;45.568;5.448;2023-06-14T10:43:27;7.15;;;6.45;;
28266;SDS011;15525;45.568;5.448;2023-06-14T10:48:42;8.35;;;5.90;;
28266;SDS011;15525;45.568;5.448;2023-06-14T10:51:21;7.88;;;6.32;;
28266;SDS011;15525;45.568;5.448;2023-06-14T10:53:47;7.43;;;6.10;;
28266;SDS011;15525;45.568;5.448;2023-06-14T10:56:23;6.85;;;6.00;;
28266;SDS011;15525;45.568;5.448;2023-06-14T10:58:53;7.35;;;5.97;;
28266;SDS011;15525;45.568;5.448;2023-06-14T11:01:23;8.95;;;6.68;;
28266;SDS011;15525;45.568;5.448;2023-06-14T11:04:07;12.75;;;8.65;;
28266;SDS011;15525;45.568;5.448;2023-06-14T11:06:48;7.65;;;6.68;;
28266;SDS011;15525;45.568;5.448;2023-06-14T11:12:03;9.05;;;7.40;;
28266;SDS011;15525;45.568;5.448;2023-06-14T11:14:31;9.50;;;7.32;;
28266;SDS011;15525;45.568;5.448;2023-06-14T11:16:57;9.32;;;7.45;;
28266;SDS011;15525;45.568;5.448;2023-06-14T11:19:22;11.10;;;7.68;;
28266;SDS011;15525;45.568;5.448;2023-06-14T11:21:48;13.27;;;7.60;;
28266;SDS011;15525;45.568;5.448;2023-06-14T11:24:14;9.75;;;7.57;;
28266;SDS011;15525;45.568;5.448;2023-06-14T11:26:39;10.23;;;7.13;;
28266;SDS011;15525;45.568;5.448;2023-06-14T11:29:05;8.32;;;7.20;;
28266;SDS011;15525;45.568;5.448;2023-06-14T11:31:31;8.90;;;7.20;;
28266;SDS011;15525;45.568;5.448;2023-06-14T11:33:57;8.35;;;7.55;;
28266;SDS011;15525;45.568;5.448;2023-06-14T11:36:25;7.95;;;7.15;;
28266;SDS011;15525;45.568;5.448;2023-06-14T11:38:57;8.57;;;7.43;;
28266;SDS011;15525;45.568;5.448;2023-06-14T11:41:36;9.10;;;7.35;;
28266;SDS011;15525;45.568;5.448;2023-06-14T11:44:03;8.88;;;7.35;;
28266;SDS011;15525;45.568;5.448;2023-06-14T11:46:28;10.07;;;7.20;;
28266;SDS011;15525;45.568;5.448;2023-06-14T11:48:54;10.50;;;7.80;;
28266;SDS011;15525;45.568;5.448;2023-06-14T11:51:20;8.45;;;7.25;;
28266;SDS011;15525;45.568;5.448;2023-06-14T11:53:46;8.02;;;7.13;;
28266;SDS011;15525;45.568;5.448;2023-06-14T11:56:11;10.50;;;7.00;;
28266;SDS011;15525;45.568;5.448;2023-06-14T11:58:37;9.70;;;7.10;;
28266;SDS011;15525;45.568;5.448;2023-06-14T12:01:02;12.65;;;7.70;;
28266;SDS011;15525;45.568;5.448;2023-06-14T12:03:28;10.35;;;7.22;;
28266;SDS011;15525;45.568;5.448;2023-06-14T12:06:06;10.32;;;7.50;;
28266;SDS011;15525;45.568;5.448;2023-06-14T12:08:34;8.00;;;7.05;;
28266;SDS011;15525;45.568;5.448;2023-06-14T12:11:11;7.88;;;7.07;;
28266;SDS011;15525;45.568;5.448;2023-06-14T12:13:38;8.93;;;7.28;;
28266;SDS011;15525;45.568;5.448;2023-06-14T12:16:06;8.88;;;6.68;;
28266;SDS011;15525;45.568;5.448;2023-06-14T12:18:36;9.93;;;7.40;;
28266;SDS011;15525;45.568;5.448;2023-06-14T12:21:07;10.95;;;7.30;;
28266;SDS011;15525;45.568;5.448;2023-06-14T12:23:46;8.90;;;7.05;;
28266;SDS011;15525;45.568;5.448;2023-06-14T12:26:16;7.70;;;6.90;;
28266;SDS011;15525;45.568;5.448;2023-06-14T12:28:43;10.38;;;7.30;;
28266;SDS011;15525;45.568;5.448;2023-06-14T12:31:13;8.80;;;7.30;;
28266;SDS011;15525;45.568;5.448;2023-06-14T12:33:40;8.35;;;7.43;;
28266;SDS011;15525;45.568;5.448;2023-06-14T12:36:06;8.23;;;6.70;;
28266;SDS011;15525;45.568;5.448;2023-06-14T12:38:33;8.23;;;7.43;;
28266;SDS011;15525;45.568;5.448;2023-06-14T12:40:59;9.15;;;7.55;;
28266;SDS011;15525;45.568;5.448;2023-06-14T12:43:25;14.57;;;8.18;;
28266;SDS011;15525;45.568;5.448;2023-06-14T12:45:51;9.40;;;7.63;;
28266;SDS011;15525;45.568;5.448;2023-06-14T12:48:16;7.88;;;6.93;;
28266;SDS011;15525;45.568;5.448;2023-06-14T12:50:42;12.05;;;7.55;;
28266;SDS011;15525;45.568;5.448;2023-06-14T12:53:07;8.50;;;6.95;;
28266;SDS011;15525;45.568;5.448;2023-06-14T12:55:33;8.10;;;6.85;;
28266;SDS011;15525;45.568;5.448;2023-06-14T12:57:58;10.20;;;7.32;;
28266;SDS011;15525;45.568;5.448;2023-06-14T13:00:24;10.45;;;7.22;;
28266;SDS011;15525;45.568;5.448;2023-06-14T13:02:51;7.90;;;7.10;;
28266;SDS011;15525;45.568;5.448;2023-06-14T13:05:17;9.68;;;6.85;;
28266;SDS011;15525;45.568;5.448;2023-06-14T13:07:42;8.68;;;6.70;;
28266;SDS011;15525;45.568;5.448;2023-06-14T13:10:08;9.32;;;6.68;;
28266;SDS011;15525;45.568;5.448;2023-06-14T13:12:34;8.20;;;6.72;;
28266;SDS011;15525;45.568;5.448;2023-06-14T13:14:59;9.95;;;6.97;;
28266;SDS011;15525;45.568;5.448;2023-06-14T13:17:26;9.00;;;7.07;;
28266;SDS011;15525;45.568;5.448;2023-06-14T13:19:51;7.55;;;6.57;;
28266;SDS011;15525;45.568;5.448;2023-06-14T13:22:16;10.63;;;6.82;;
28266;SDS011;15525;45.568;5.448;2023-06-14T13:24:42;7.90;;;6.60;;
28266;SDS011;15525;45.568;5.448;2023-06-14T13:27:07;7.32;;;6.50;;
28266;SDS011;15525;45.568;5.448;2023-06-14T13:29:33;7.82;;;6.47;;
28266;SDS011;15525;45.568;5.448;2023-06-14T13:32:00;8.20;;;6.47;;
28266;SDS011;15525;45.568;5.448;2023-06-14T13:34:26;8.68;;;6.90;;
28266;SDS011;15525;45.568;5.448;2023-06-14T13:36:52;8.90;;;6.53;;
28266;SDS011;15525;45.568;5.448;2023-06-14T13:39:17;7.93;;;6.80;;
28266;SDS011;15525;45.568;5.448;2023-06-14T13:41:42;7.68;;;6.80;;
28266;SDS011;15525;45.568;5.448;2023-06-14T13:44:08;8.25;;;6.70;;
28266;SDS011;15525;45.568;5.448;2023-06-14T13:46:36;8.65;;;6.55;;
28266;SDS011;15525;45.568;5.448;2023-06-14T13:49:01;10.18;;;7.07;;
28266;SDS011;15525;45.568;5.448;2023-06-14T13:51:27;7.53;;;6.47;;
28266;SDS011;15525;45.568;5.448;2023-06-14T13:53:52;8.75;;;6.82;;
28266;SDS011;15525;45.568;5.448;2023-06-14T13:56:18;9.45;;;6.40;;
28266;SDS011;15525;45.568;5.448;2023-06-14T13:58:44;9.98;;;7.13;;
28266;SDS011;15525;45.568;5.448;2023-06-14T14:01:09;8.65;;;6.72;;
28266;SDS011;15525;45.568;5.448;2023-06-14T14:03:36;8.90;;;6.60;;
28266;SDS011;15525;45.568;5.448;2023-06-14T14:06:04;7.88;;;6.45;;
28266;SDS011;15525;45.568;5.448;2023-06-14T14:08:30;7.90;;;6.60;;
28266;SDS011;15525;45.568;5.448;2023-06-14T14:10:56;7.68;;;5.82;;
28266;SDS011;15525;45.568;5.448;2023-06-14T14:13:22;7.88;;;6.90;;
28266;SDS011;15525;45.568;5.448;2023-06-14T14:15:47;8.35;;;6.93;;
28266;SDS011;15525;45.568;5.448;2023-06-14T14:18:14;7.57;;;6.43;;
28266;SDS011;15525;45.568;5.448;2023-06-14T14:20:40;10.40;;;6.85;;
28266;SDS011;15525;45.568;5.448;2023-06-14T14:23:05;7.20;;;6.50;;
28266;SDS011;15525;45.568;5.448;2023-06-14T14:25:31;11.43;;;6.80;;
28266;SDS011;15525;45.568;5.448;2023-06-14T14:27:56;7.40;;;6.35;;
28266;SDS011;15525;45.568;5.448;2023-06-14T14:30:22;9.55;;;7.05;;
28266;SDS011;15525;45.568;5.448;2023-06-14T14:32:48;8.70;;;6.65;;
28266;SDS011;15525;45.568;5.448;2023-06-14T14:35:16;7.50;;;6.38;;
28266;SDS011;15525;45.568;5.448;2023-06-14T14:37:42;8.95;;;6.90;;
28266;SDS011;15525;45.568;5.448;2023-06-14T14:40:08;8.20;;;6.50;;
28266;SDS011;15525;45.568;5.448;2023-06-14T14:42:35;8.90;;;6.43;;
28266;SDS011;15525;45.568;5.448;2023-06-14T14:45:01;9.43;;;6.60;;
28266;SDS011;15525;45.568;5.448;2023-06-14T14:47:26;10.75;;;6.80;;
28266;SDS011;15525;45.568;5.448;2023-06-14T14:49:51;9.27;;;6.47;;
28266;SDS011;15525;45.568;5.448;2023-06-14T14:52:17;7.22;;;6.00;;
28266;SDS011;15525;45.568;5.448;2023-06-14T14:54:42;8.70;;;6.35;;
28266;SDS011;15525;45.568;5.448;2023-06-14T14:57:08;9.23;;;6.40;;